Time;durP1;ratioP1;P1;durP2;ratioP2;P2;SDS_P1;SDS_P2;PMS_P1;PMS_P2;Temp;Humidity;BMP_temperature;BMP_pressure;BME280_temperature;BME280_humidity;BME280_pressure;Samples;Min_cycle;Max_cycle;Signal;HPM_P1;HPM_P2
2022/08/02 00:01:20;;;;;;;7.80;2.20;;;;;;;;;;2333906;57;21093;-77
2022/08/02 00:03:47;;;;;;;9.88;2.90;;;;;;;;;;2334300;57;21102;-77
2022/08/02 00:06:14;;;;;;;4.37;2.05;;;;;;;;;;2333890;57;21102;-77
2022/08/02 00:08:41;;;;;;;6.78;2.20;;;;;;;;;;2334569;57;21187;-77
2022/08/02 00:11:08;;;;;;;6.72;3.28;;;;;;;;;;2333886;57;21066;-77
2022/08/02 00:13:35;;;;;;;7.40;2.42;;;;;;;;;;2334910;57;21050;-77
2022/08/02 00:16:02;;;;;;;3.15;2.05;;;;;;;;;;2333621;57;21062;-77
2022/08/02 00:18:29;;;;;;;6.60;2.42;;;;;;;;;;2334991;57;21106;-77
2022/08/02 00:20:56;;;;;;;3.60;2.30;;;;;;;;;;2334065;57;21524;-77
2022/08/02 00:23:23;;;;;;;4.62;2.17;;;;;;;;;;2335119;57;21076;-77
2022/08/02 00:25:51;;;;;;;4.55;2.35;;;;;;;;;;2333178;57;21608;-77
2022/08/02 00:28:18;;;;;;;12.48;2.45;;;;;;;;;;2334743;57;21555;-77
2022/08/02 00:30:45;;;;;;;5.72;2.90;;;;;;;;;;2334000;57;21345;-76
2022/08/02 00:33:12;;;;;;;6.00;2.30;;;;;;;;;;2334279;57;21054;-77
2022/08/02 00:35:39;;;;;;;5.60;2.28;;;;;;;;;;2333635;57;22221;-77
2022/08/02 00:38:06;;;;;;;5.53;2.22;;;;;;;;;;2334977;57;21177;-78
2022/08/02 00:40:33;;;;;;;10.68;2.90;;;;;;;;;;2333318;57;21555;-77
2022/08/02 00:43:03;;;;;;;4.53;2.03;;;;;;;;;;2334703;57;21121;-77
2022/08/02 00:45:30;;;;;;;6.15;2.35;;;;;;;;;;2332977;57;21596;-77
2022/08/02 00:47:57;;;;;;;4.70;2.35;;;;;;;;;;2334386;57;21543;-77
2022/08/02 00:50:24;;;;;;;4.00;2.00;;;;;;;;;;2334572;57;21077;-76
2022/08/02 00:52:51;;;;;;;4.03;1.87;;;;;;;;;;2334587;57;21042;-77
2022/08/02 00:55:18;;;;;;;8.10;2.15;;;;;;;;;;2334361;57;21058;-77
2022/08/02 00:57:45;;;;;;;7.82;3.20;;;;;;;;;;2334422;57;21097;-77
2022/08/02 01:00:13;;;;;;;5.15;2.65;;;;;;;;;;2333794;57;21620;-77
2022/08/02 01:02:40;;;;;;;4.25;1.90;;;;;;;;;;2333873;57;21042;-77
2022/08/02 01:05:08;;;;;;;5.32;1.80;;;;;;;;;;2334918;57;21050;-77
2022/08/02 01:07:35;;;;;;;6.95;2.35;;;;;;;;;;2333560;57;21062;-77
2022/08/02 01:10:02;;;;;;;6.68;2.70;;;;;;;;;;2334529;57;21185;-78
2022/08/02 01:12:29;;;;;;;3.40;1.90;;;;;;;;;;2334718;57;21169;-78
2022/08/02 01:14:58;;;;;;;4.78;2.10;;;;;;;;;;2333772;57;21176;-77
2022/08/02 01:17:29;;;;;;;4.03;2.33;;;;;;;;;;2333152;57;21037;-77
2022/08/02 01:19:58;;;;;;;6.87;2.60;;;;;;;;;;2334971;57;21129;-77
2022/08/02 01:22:42;;;;;;;5.12;2.37;;;;;;;;;;2334544;57;21042;-77
2022/08/02 01:25:15;;;;;;;6.47;2.15;;;;;;;;;;2334251;57;21125;-77
2022/08/02 01:27:51;;;;;;;6.07;2.35;;;;;;;;;;2333450;57;21034;-77
2022/08/02 01:30:19;;;;;;;5.18;2.20;;;;;;;;;;2334433;57;21209;-77
2022/08/02 01:32:50;;;;;;;5.70;2.20;;;;;;;;;;2333887;57;21050;-77
2022/08/02 01:35:20;;;;;;;6.43;2.10;;;;;;;;;;2333703;57;21069;-77
2022/08/02 01:37:49;;;;;;;5.22;1.75;;;;;;;;;;2333492;57;21109;-77
2022/08/02 01:40:19;;;;;;;3.45;2.17;;;;;;;;;;2333871;57;21160;-77
2022/08/02 01:42:47;;;;;;;7.25;2.12;;;;;;;;;;2333543;57;21090;-77
2022/08/02 01:45:16;;;;;;;2.97;2.00;;;;;;;;;;2334067;57;21114;-77
2022/08/02 01:47:44;;;;;;;8.65;3.10;;;;;;;;;;2333490;57;21169;-77
2022/08/02 01:50:12;;;;;;;9.32;2.67;;;;;;;;;;2333852;57;21620;-77
2022/08/02 01:52:50;;;;;;;9.32;2.55;;;;;;;;;;2334063;57;21046;-77
2022/08/02 01:55:20;;;;;;;9.70;3.90;;;;;;;;;;2333585;57;21066;-77
2022/08/02 01:57:48;;;;;;;5.90;2.30;;;;;;;;;;2334553;57;21051;-77
2022/08/02 02:00:16;;;;;;;4.32;2.00;;;;;;;;;;2333505;57;21054;-77
2022/08/02 02:02:46;;;;;;;5.75;2.60;;;;;;;;;;2333472;57;21047;-77
2022/08/02 02:05:15;;;;;;;5.43;2.25;;;;;;;;;;2333721;57;21054;-77
2022/08/02 02:07:44;;;;;;;3.72;2.15;;;;;;;;;;2333461;57;21053;-77
2022/08/02 02:10:14;;;;;;;3.30;1.92;;;;;;;;;;2334305;57;21062;-77
2022/08/02 02:12:42;;;;;;;6.75;2.30;;;;;;;;;;2333748;57;21062;-77
2022/08/02 02:15:11;;;;;;;8.55;2.08;;;;;;;;;;2333161;57;21149;-77
2022/08/02 02:17:39;;;;;;;5.05;2.30;;;;;;;;;;2333604;57;21125;-77
2022/08/02 02:20:09;;;;;;;5.43;2.12;;;;;;;;;;2334155;57;21121;-77
2022/08/02 02:22:36;;;;;;;3.53;2.12;;;;;;;;;;2334201;57;21066;-77
2022/08/02 02:25:03;;;;;;;4.43;2.10;;;;;;;;;;2333387;57;21133;-77
2022/08/02 02:27:31;;;;;;;5.60;2.53;;;;;;;;;;2333000;57;21169;-77
2022/08/02 02:29:59;;;;;;;4.68;2.30;;;;;;;;;;2334198;57;21054;-77
2022/08/02 02:32:27;;;;;;;5.12;2.47;;;;;;;;;;2334542;57;21050;-77
2022/08/02 02:34:55;;;;;;;4.93;2.10;;;;;;;;;;2334341;57;21552;-77
2022/08/02 02:37:23;;;;;;;3.53;2.00;;;;;;;;;;2576972;53;21050;-77
2022/08/02 02:39:51;;;;;;;4.35;2.08;;;;;;;;;;2334116;57;21050;-77
2022/08/02 02:42:20;;;;;;;5.72;2.45;;;;;;;;;;2334083;57;21074;-76
2022/08/02 02:44:47;;;;;;;5.03;2.33;;;;;;;;;;2333604;57;21042;-76
2022/08/02 02:47:15;;;;;;;3.42;2.20;;;;;;;;;;2332425;57;21415;-77
2022/08/02 02:49:43;;;;;;;2.33;2.00;;;;;;;;;;2333781;57;21058;-77
2022/08/02 02:52:13;;;;;;;5.85;1.80;;;;;;;;;;2333064;57;21042;-77
2022/08/02 02:54:40;;;;;;;5.70;2.28;;;;;;;;;;2334037;57;21327;-77
2022/08/02 02:57:07;;;;;;;4.50;1.90;;;;;;;;;;2333587;57;21113;-77
2022/08/02 02:59:35;;;;;;;5.22;1.70;;;;;;;;;;2333665;57;21122;-76
2022/08/02 03:02:02;;;;;;;4.03;2.30;;;;;;;;;;2334069;57;21110;-77
2022/08/02 03:04:31;;;;;;;4.18;2.17;;;;;;;;;;2334123;57;21054;-77
2022/08/02 03:06:58;;;;;;;3.45;2.33;;;;;;;;;;2331988;57;21058;-77
2022/08/02 03:09:25;;;;;;;6.15;2.47;;;;;;;;;;2334096;57;21062;-77
2022/08/02 03:11:53;;;;;;;5.65;2.12;;;;;;;;;;2333350;57;21041;-76
2022/08/02 03:14:20;;;;;;;3.97;2.10;;;;;;;;;;2334274;57;21057;-77
2022/08/02 03:16:48;;;;;;;5.10;2.60;;;;;;;;;;2333579;57;21042;-77
2022/08/02 03:19:15;;;;;;;4.43;2.12;;;;;;;;;;2334020;57;21194;-77
2022/08/02 03:21:43;;;;;;;3.60;1.80;;;;;;;;;;2334179;57;21169;-77
2022/08/02 03:24:10;;;;;;;6.60;2.25;;;;;;;;;;2332467;57;21133;-77
2022/08/02 03:26:37;;;;;;;5.30;2.50;;;;;;;;;;2333193;57;21113;-77
2022/08/02 03:29:05;;;;;;;5.62;2.33;;;;;;;;;;2333776;57;21117;-76
2022/08/02 03:31:32;;;;;;;3.30;2.10;;;;;;;;;;2333918;57;21098;-77
2022/08/02 03:34:00;;;;;;;6.75;2.30;;;;;;;;;;2333676;57;21110;-76
2022/08/02 03:36:28;;;;;;;4.25;2.35;;;;;;;;;;2333526;57;21620;-77
2022/08/02 03:38:56;;;;;;;4.95;2.00;;;;;;;;;;2332795;57;21105;-76
2022/08/02 03:41:24;;;;;;;5.20;2.22;;;;;;;;;;2334358;57;21054;-77
2022/08/02 03:43:52;;;;;;;5.32;2.53;;;;;;;;;;2333595;57;21057;-77
2022/08/02 03:46:20;;;;;;;4.95;1.87;;;;;;;;;;2332228;57;21114;-77
2022/08/02 03:48:47;;;;;;;3.45;2.42;;;;;;;;;;2333723;57;21152;-77
2022/08/02 03:51:15;;;;;;;5.85;2.45;;;;;;;;;;2333435;57;21062;-76
2022/08/02 03:53:42;;;;;;;5.15;2.15;;;;;;;;;;2333960;57;21113;-77
2022/08/02 03:56:09;;;;;;;6.65;2.35;;;;;;;;;;2333166;57;21050;-77
2022/08/02 03:58:36;;;;;;;5.28;2.40;;;;;;;;;;2333373;57;21062;-77
2022/08/02 04:01:03;;;;;;;7.28;2.55;;;;;;;;;;2333427;57;21038;-77
2022/08/02 04:03:31;;;;;;;5.85;2.53;;;;;;;;;;2333907;57;21045;-77
2022/08/02 04:05:58;;;;;;;5.07;2.10;;;;;;;;;;2333400;57;21170;-77
2022/08/02 04:08:25;;;;;;;5.28;2.00;;;;;;;;;;2333602;57;21066;-76
2022/08/02 04:13:38;;;;;;;5.15;2.40;;;;;;;;;;2334037;57;21057;-77
2022/08/02 04:16:08;;;;;;;3.92;1.90;;;;;;;;;;2333131;57;21038;-76
2022/08/02 04:18:39;;;;;;;2.97;2.00;;;;;;;;;;2333422;57;21046;-77
2022/08/02 04:21:07;;;;;;;3.50;2.30;;;;;;;;;;2333368;57;21054;-76
2022/08/02 04:23:36;;;;;;;4.75;2.58;;;;;;;;;;2334400;57;21062;-75
2022/08/02 04:26:04;;;;;;;2.85;2.45;;;;;;;;;;2331140;57;21042;-76
2022/08/02 04:28:32;;;;;;;10.55;2.60;;;;;;;;;;2333871;57;21142;-76
2022/08/02 04:31:00;;;;;;;2.67;1.80;;;;;;;;;;2333157;57;21057;-77
2022/08/02 04:33:27;;;;;;;7.05;2.70;;;;;;;;;;2333336;57;21046;-76
2022/08/02 04:35:54;;;;;;;4.32;2.37;;;;;;;;;;2332199;57;21312;-76
2022/08/02 04:38:21;;;;;;;4.28;2.33;;;;;;;;;;2332255;57;21541;-76
2022/08/02 04:40:52;;;;;;;5.80;3.40;;;;;;;;;;2331139;57;21054;-75
2022/08/02 04:43:19;;;;;;;7.00;3.10;;;;;;;;;;2333861;57;21050;-76
2022/08/02 04:45:47;;;;;;;7.18;3.40;;;;;;;;;;2332916;57;21483;-76
2022/08/02 04:48:14;;;;;;;7.43;2.58;;;;;;;;;;2334175;57;21540;-76
2022/08/02 04:50:41;;;;;;;7.43;2.62;;;;;;;;;;2333404;57;21368;-76
2022/08/02 04:53:08;;;;;;;6.10;2.83;;;;;;;;;;2334240;57;21122;-76
2022/08/02 04:55:35;;;;;;;7.68;2.83;;;;;;;;;;2333748;57;21118;-76
2022/08/02 04:58:02;;;;;;;4.45;2.12;;;;;;;;;;2332830;57;21058;-76
2022/08/02 05:00:31;;;;;;;4.05;2.55;;;;;;;;;;2334333;57;21046;-76
2022/08/02 05:02:58;;;;;;;5.05;2.65;;;;;;;;;;2334029;57;21363;-76
2022/08/02 05:05:26;;;;;;;5.00;2.92;;;;;;;;;;2333348;57;21101;-76
2022/08/02 05:07:53;;;;;;;5.78;2.50;;;;;;;;;;2334044;57;21038;-76
2022/08/02 05:10:20;;;;;;;3.10;2.20;;;;;;;;;;2333880;57;21046;-77
2022/08/02 05:12:47;;;;;;;4.03;2.28;;;;;;;;;;2334143;57;21141;-76
2022/08/02 05:15:17;;;;;;;7.57;2.53;;;;;;;;;;2332877;57;21181;-76
2022/08/02 05:17:45;;;;;;;4.82;2.72;;;;;;;;;;2333294;57;21117;-77
2022/08/02 05:20:12;;;;;;;7.57;2.87;;;;;;;;;;2333773;57;21197;-76
2022/08/02 05:22:39;;;;;;;6.47;3.00;;;;;;;;;;2332387;57;21046;-77
2022/08/02 05:25:07;;;;;;;8.98;2.62;;;;;;;;;;2458291;53;73221;-76
2022/08/02 05:27:35;;;;;;;6.90;2.62;;;;;;;;;;2251735;60;21082;-80
2022/08/02 05:30:02;;;;;;;7.90;2.40;;;;;;;;;;2478664;55;21070;-83
2022/08/02 05:32:29;;;;;;;5.57;2.60;;;;;;;;;;2252322;60;21145;-82
2022/08/02 05:34:56;;;;;;;5.50;2.17;;;;;;;;;;2275084;59;21064;-81
2022/08/02 05:37:24;;;;;;;9.38;2.87;;;;;;;;;;2276982;59;21140;-83
2022/08/02 05:39:51;;;;;;;9.63;2.75;;;;;;;;;;2509034;54;21076;-82
2022/08/02 05:42:18;;;;;;;8.93;3.12;;;;;;;;;;2509445;54;21155;-82
2022/08/02 05:44:45;;;;;;;6.47;3.00;;;;;;;;;;2277614;59;21656;-81
2022/08/02 05:47:12;;;;;;;7.35;3.00;;;;;;;;;;2509249;54;21068;-81
2022/08/02 05:49:39;;;;;;;4.57;2.65;;;;;;;;;;2509622;55;21403;-81
2022/08/02 05:52:10;;;;;;;12.63;3.05;;;;;;;;;;2277522;59;21136;-81
2022/08/02 05:54:42;;;;;;;9.50;3.17;;;;;;;;;;2509552;55;21191;-81
2022/08/02 05:57:15;;;;;;;7.32;3.53;;;;;;;;;;2508789;55;21052;-82
2022/08/02 05:59:47;;;;;;;9.25;3.00;;;;;;;;;;2277691;59;21107;-82
2022/08/02 06:02:27;;;;;;;9.80;3.42;;;;;;;;;;2277772;59;21080;-81
2022/08/02 06:04:58;;;;;;;8.02;3.20;;;;;;;;;;2277679;59;21108;-82
2022/08/02 06:07:25;;;;;;;4.85;2.65;;;;;;;;;;2509218;55;21073;-82
2022/08/02 06:09:52;;;;;;;5.72;2.50;;;;;;;;;;2278048;59;21064;-81
2022/08/02 06:12:19;;;;;;;9.95;3.03;;;;;;;;;;2509766;54;21053;-81
2022/08/02 06:14:47;;;;;;;9.68;3.05;;;;;;;;;;2277695;59;21589;-81
2022/08/02 06:17:14;;;;;;;6.03;2.45;;;;;;;;;;2277719;59;21143;-82
2022/08/02 06:19:41;;;;;;;7.30;2.95;;;;;;;;;;2509861;55;21087;-82
2022/08/02 06:22:14;;;;;;;7.80;3.15;;;;;;;;;;2509466;55;21076;-82
2022/08/02 06:24:40;;;;;;;;;;;;;;;;;;2281044;59;21830;-81
2022/08/02 06:27:08;;;;;;;6.35;2.47;;;;;;;;;;2509224;54;20354;-83
2022/08/02 06:29:36;;;;;;;5.87;2.58;;;;;;;;;;2509230;55;21096;-82
2022/08/02 06:32:05;;;;;;;8.80;2.65;;;;;;;;;;2277879;59;21072;-80
2022/08/02 06:34:35;;;;;;;6.25;2.83;;;;;;;;;;2277435;59;21118;-81
2022/08/02 06:37:06;;;;;;;14.10;3.60;;;;;;;;;;2277728;59;21140;-81
2022/08/02 06:39:39;;;;;;;10.80;2.55;;;;;;;;;;2277996;59;21072;-81
2022/08/02 06:42:11;;;;;;;9.73;2.62;;;;;;;;;;2277826;59;21592;-80
2022/08/02 06:44:38;;;;;;;10.25;2.72;;;;;;;;;;2509277;55;21068;-81
2022/08/02 06:47:05;;;;;;;5.50;2.00;;;;;;;;;;2277409;58;21717;-82
2022/08/02 06:49:33;;;;;;;10.98;2.53;;;;;;;;;;2277114;58;21660;-80
2022/08/02 06:52:00;;;;;;;6.65;2.40;;;;;;;;;;2276647;59;21092;-80
2022/08/02 06:54:27;;;;;;;6.30;2.00;;;;;;;;;;2277217;59;21144;-81
2022/08/02 06:56:54;;;;;;;8.23;2.28;;;;;;;;;;2509256;55;21108;-81
2022/08/02 06:59:21;;;;;;;8.85;2.25;;;;;;;;;;2277552;59;21136;-81
2022/08/02 07:01:48;;;;;;;8.85;2.45;;;;;;;;;;2509618;54;21088;-81
2022/08/02 07:04:15;;;;;;;7.03;2.28;;;;;;;;;;2277086;58;21084;-80
2022/08/02 07:06:42;;;;;;;5.65;2.58;;;;;;;;;;2508767;54;21076;-81
2022/08/02 07:09:10;;;;;;;7.97;2.85;;;;;;;;;;2277834;58;21068;-81
2022/08/02 07:11:37;;;;;;;4.90;2.00;;;;;;;;;;2509497;54;21092;-81
2022/08/02 07:14:04;;;;;;;6.60;1.92;;;;;;;;;;2278185;59;21063;-81
2022/08/02 07:16:31;;;;;;;9.98;2.33;;;;;;;;;;2277820;58;21096;-81
2022/08/02 07:18:58;;;;;;;8.88;2.50;;;;;;;;;;2509090;54;21093;-81
2022/08/02 07:21:25;;;;;;;6.22;2.30;;;;;;;;;;2509681;54;21076;-81
2022/08/02 07:23:52;;;;;;;7.22;1.80;;;;;;;;;;2277946;58;21073;-81
2022/08/02 07:26:19;;;;;;;7.93;2.05;;;;;;;;;;2277414;59;21584;-80
2022/08/02 07:28:46;;;;;;;6.15;2.03;;;;;;;;;;2509654;54;21072;-82
2022/08/02 07:31:13;;;;;;;7.95;2.00;;;;;;;;;;2507388;54;21065;-78
2022/08/02 07:33:40;;;;;;;7.22;2.70;;;;;;;;;;2275459;59;21208;-78
2022/08/02 07:36:08;;;;;;;5.57;2.05;;;;;;;;;;2506172;55;21097;-78
2022/08/02 07:38:35;;;;;;;3.47;1.90;;;;;;;;;;2506288;54;21081;-78
2022/08/02 07:41:02;;;;;;;6.60;1.87;;;;;;;;;;2274749;59;22213;-78
2022/08/02 07:43:29;;;;;;;6.00;2.50;;;;;;;;;;2273659;59;21859;-78
2022/08/02 07:45:56;;;;;;;7.65;2.42;;;;;;;;;;2506254;55;21057;-77
2022/08/02 07:48:23;;;;;;;6.03;2.58;;;;;;;;;;2505408;55;21068;-78
2022/08/02 07:50:50;;;;;;;8.25;2.40;;;;;;;;;;2277258;59;21067;-81
2022/08/02 07:53:18;;;;;;;10.38;2.92;;;;;;;;;;2509748;54;21100;-81
2022/08/02 07:55:45;;;;;;;9.48;2.17;;;;;;;;;;2278664;59;21068;-81
2022/08/02 07:58:12;;;;;;;4.22;1.80;;;;;;;;;;2278449;59;21609;-80
2022/08/02 08:00:40;;;;;;;6.37;2.12;;;;;;;;;;2510474;55;21068;-81
2022/08/02 08:03:06;;;;;;;7.75;2.30;;;;;;;;;;2278138;59;21057;-80
2022/08/02 08:05:33;;;;;;;8.68;3.00;;;;;;;;;;2509858;55;21093;-80
2022/08/02 08:08:01;;;;;;;3.40;1.65;;;;;;;;;;2277696;59;21588;-80
2022/08/02 08:10:28;;;;;;;6.40;1.90;;;;;;;;;;2278611;59;21073;-80
2022/08/02 08:12:55;;;;;;;7.72;2.20;;;;;;;;;;2278367;59;21068;-80
2022/08/02 08:15:23;;;;;;;5.57;1.80;;;;;;;;;;2510078;55;21551;-81
2022/08/02 08:17:50;;;;;;;12.35;2.50;;;;;;;;;;2510324;54;21124;-81
2022/08/02 08:20:17;;;;;;;8.55;2.50;;;;;;;;;;2278976;59;21184;-82
2022/08/02 08:22:44;;;;;;;5.45;1.90;;;;;;;;;;2510052;54;21065;-81
2022/08/02 08:25:11;;;;;;;8.13;2.33;;;;;;;;;;2510214;54;21153;-81
2022/08/02 08:27:47;;;;;;;4.70;1.92;;;;;;;;;;2510239;54;21068;-81
2022/08/02 08:30:14;;;;;;;5.25;2.03;;;;;;;;;;2278590;59;21057;-81
2022/08/02 08:32:41;;;;;;;10.00;1.92;;;;;;;;;;2510158;54;21092;-81
2022/08/02 08:35:08;;;;;;;6.25;2.33;;;;;;;;;;2509623;55;21057;-81
2022/08/02 08:37:35;;;;;;;4.40;1.90;;;;;;;;;;2278064;58;21117;-81
2022/08/02 08:40:03;;;;;;;5.30;2.03;;;;;;;;;;2510496;54;21120;-81
2022/08/02 08:42:31;;;;;;;4.28;1.83;;;;;;;;;;2509793;54;21060;-82
2022/08/02 08:44:58;;;;;;;5.97;2.03;;;;;;;;;;2509803;54;21075;-80
2022/08/02 08:47:28;;;;;;;6.82;2.12;;;;;;;;;;2278227;59;21080;-81
2022/08/02 08:49:57;;;;;;;11.65;2.45;;;;;;;;;;2510351;54;21073;-82
2022/08/02 08:52:25;;;;;;;6.22;2.97;;;;;;;;;;2278425;59;21076;-81
2022/08/02 08:54:53;;;;;;;3.08;1.33;;;;;;;;;;2510028;54;21163;-80
2022/08/02 08:57:20;;;;;;;8.15;1.95;;;;;;;;;;2509860;54;22261;-81
2022/08/02 08:59:47;;;;;;;2.35;1.35;;;;;;;;;;2278262;59;21285;-81
2022/08/02 09:02:17;;;;;;;6.82;2.28;;;;;;;;;;2510459;54;21664;-81
2022/08/02 09:04:44;;;;;;;6.25;2.33;;;;;;;;;;2510167;55;21652;-81
2022/08/02 09:07:12;;;;;;;3.47;1.60;;;;;;;;;;2278240;59;21136;-81
2022/08/02 09:09:39;;;;;;;5.18;1.83;;;;;;;;;;2278493;59;21640;-81
2022/08/02 09:12:16;;;;;;;3.65;1.60;;;;;;;;;;2278649;59;21075;-81
2022/08/02 09:14:43;;;;;;;2.83;1.67;;;;;;;;;;2277943;59;21068;-81
2022/08/02 09:17:11;;;;;;;3.90;1.40;;;;;;;;;;2510079;54;21111;-81
2022/08/02 09:19:39;;;;;;;4.80;1.50;;;;;;;;;;2509788;54;21215;-81
2022/08/02 09:22:07;;;;;;;6.87;1.80;;;;;;;;;;2278583;59;21096;-82
2022/08/02 09:24:42;;;;;;;3.55;1.20;;;;;;;;;;2278331;59;21084;-81
2022/08/02 09:27:13;;;;;;;5.40;1.50;;;;;;;;;;2277908;59;21064;-81
2022/08/02 09:29:40;;;;;;;5.93;1.48;;;;;;;;;;2509919;55;21064;-81
2022/08/02 09:32:08;;;;;;;5.82;1.60;;;;;;;;;;2510252;54;21403;-82
2022/08/02 09:34:44;;;;;;;3.72;1.52;;;;;;;;;;2278476;59;21094;-80
2022/08/02 09:37:22;;;;;;;6.62;2.00;;;;;;;;;;2276794;59;21123;-81
2022/08/02 09:39:50;;;;;;;3.72;1.40;;;;;;;;;;2278106;59;21143;-81
2022/08/02 09:42:17;;;;;;;6.35;1.90;;;;;;;;;;2278434;59;21060;-81
2022/08/02 09:44:53;;;;;;;4.32;1.37;;;;;;;;;;2509945;54;21103;-81
2022/08/02 09:47:20;;;;;;;4.07;1.77;;;;;;;;;;2509577;55;21077;-81
2022/08/02 09:49:47;;;;;;;3.42;1.50;;;;;;;;;;2278634;59;21159;-81
2022/08/02 09:52:15;;;;;;;6.18;1.60;;;;;;;;;;2509092;55;21112;-81
2022/08/02 09:54:42;;;;;;;5.85;1.55;;;;;;;;;;2278263;59;21084;-81
2022/08/02 09:57:10;;;;;;;4.53;1.80;;;;;;;;;;2509607;54;21217;-81
2022/08/02 09:59:37;;;;;;;4.43;1.87;;;;;;;;;;2278541;59;21115;-82
2022/08/02 10:02:09;;;;;;;5.12;1.55;;;;;;;;;;2278871;59;21148;-82
2022/08/02 10:04:37;;;;;;;5.50;1.83;;;;;;;;;;2278734;59;21092;-80
2022/08/02 10:07:04;;;;;;;4.50;1.87;;;;;;;;;;2509801;55;21152;-81
2022/08/02 10:09:31;;;;;;;6.68;1.80;;;;;;;;;;2510284;54;21064;-80
2022/08/02 10:11:59;;;;;;;7.57;2.03;;;;;;;;;;2278176;59;21140;-81
2022/08/02 10:14:27;;;;;;;7.62;2.15;;;;;;;;;;2510170;54;21128;-82
2022/08/02 10:16:56;;;;;;;4.10;1.90;;;;;;;;;;2278181;59;21090;-82
2022/08/02 10:19:23;;;;;;;3.90;1.60;;;;;;;;;;2509827;54;21691;-81
2022/08/02 10:21:54;;;;;;;4.20;1.55;;;;;;;;;;2278179;59;21076;-81
2022/08/02 10:24:22;;;;;;;3.87;1.90;;;;;;;;;;2277588;59;21088;-81
2022/08/02 10:26:49;;;;;;;6.43;1.80;;;;;;;;;;2509101;54;21094;-80
2022/08/02 10:29:18;;;;;;;5.87;1.85;;;;;;;;;;2277790;59;21120;-80
2022/08/02 10:31:48;;;;;;;5.32;1.77;;;;;;;;;;2508614;55;21065;-81
2022/08/02 10:34:18;;;;;;;7.25;1.45;;;;;;;;;;2278463;59;21081;-81
2022/08/02 10:36:45;;;;;;;5.20;1.58;;;;;;;;;;2509784;55;21119;-81
2022/08/02 10:39:13;;;;;;;8.90;3.10;;;;;;;;;;2510002;54;21186;-81
2022/08/02 10:41:41;;;;;;;7.15;2.00;;;;;;;;;;2277777;59;21073;-81
2022/08/02 10:44:08;;;;;;;3.95;1.60;;;;;;;;;;2278043;59;21830;-81
2022/08/02 10:46:36;;;;;;;5.50;1.95;;;;;;;;;;2277609;59;21589;-81
2022/08/02 10:49:06;;;;;;;7.40;3.25;;;;;;;;;;2278077;59;21193;-81
2022/08/02 10:51:51;;;;;;;6.55;2.67;;;;;;;;;;2510187;55;21088;-81
2022/08/02 10:54:19;;;;;;;5.20;2.22;;;;;;;;;;2278145;59;21143;-81
2022/08/02 10:56:47;;;;;;;5.43;1.80;;;;;;;;;;2277801;59;21104;-83
2022/08/02 10:59:25;;;;;;;3.60;1.58;;;;;;;;;;2277741;59;21853;-81
2022/08/02 11:01:59;;;;;;;7.72;1.62;;;;;;;;;;2278042;59;21136;-82
2022/08/02 11:04:27;;;;;;;3.95;1.60;;;;;;;;;;2510080;55;21081;-82
2022/08/02 11:07:07;;;;;;;4.22;1.50;;;;;;;;;;2508867;55;21100;-83
2022/08/02 11:09:34;;;;;;;6.78;2.08;;;;;;;;;;2277631;59;21052;-82
2022/08/02 11:12:03;;;;;;;4.68;1.67;;;;;;;;;;2277818;59;21056;-81
2022/08/02 11:14:30;;;;;;;4.85;1.85;;;;;;;;;;2509723;54;21076;-82
2022/08/02 11:17:08;;;;;;;6.93;1.80;;;;;;;;;;2277748;59;21072;-82
2022/08/02 11:19:35;;;;;;;3.58;1.40;;;;;;;;;;2278003;59;21139;-81
2022/08/02 11:22:04;;;;;;;5.95;1.60;;;;;;;;;;2509491;54;21089;-82
2022/08/02 11:24:31;;;;;;;4.18;1.98;;;;;;;;;;2265520;54;69661;-77
2022/08/02 11:26:59;;;;;;;4.60;1.52;;;;;;;;;;2255571;59;21110;-74
2022/08/02 11:29:37;;;;;;;5.37;1.77;;;;;;;;;;2256009;59;21047;-75
2022/08/02 11:32:04;;;;;;;5.32;1.40;;;;;;;;;;2255446;59;21611;-75
2022/08/02 11:34:32;;;;;;;4.07;1.67;;;;;;;;;;2369256;55;21059;-77
2022/08/02 11:36:59;;;;;;;3.33;1.45;;;;;;;;;;2254870;59;21147;-76
2022/08/02 11:39:26;;;;;;;2.42;1.02;;;;;;;;;;2255141;59;21139;-76
2022/08/02 11:41:55;;;;;;;2.70;1.42;;;;;;;;;;2255482;59;21106;-75
2022/08/02 11:44:23;;;;;;;4.57;1.60;;;;;;;;;;2255584;59;21351;-75
2022/08/02 11:46:57;;;;;;;3.80;1.50;;;;;;;;;;2254804;59;21127;-75
2022/08/02 11:49:24;;;;;;;7.50;1.92;;;;;;;;;;2255675;59;21056;-75
2022/08/02 11:51:52;;;;;;;3.22;1.15;;;;;;;;;;2255255;59;21131;-75
2022/08/02 11:54:26;;;;;;;2.65;1.50;;;;;;;;;;2255912;59;21071;-76
2022/08/02 11:56:54;;;;;;;4.53;1.50;;;;;;;;;;2254955;59;21153;-76
2022/08/02 11:59:21;;;;;;;3.42;1.35;;;;;;;;;;2255962;59;21066;-76
2022/08/02 12:01:48;;;;;;;5.35;1.30;;;;;;;;;;2255511;59;21119;-75
2022/08/02 12:04:19;;;;;;;2.30;1.27;;;;;;;;;;2379676;56;21152;-75
2022/08/02 12:06:56;;;;;;;3.00;1.25;;;;;;;;;;2254900;59;21051;-75
2022/08/02 12:09:24;;;;;;;4.05;1.40;;;;;;;;;;2274461;56;21086;-76
2022/08/02 12:11:51;;;;;;;4.45;1.62;;;;;;;;;;2255710;59;21051;-75
2022/08/02 12:14:18;;;;;;;2.50;1.17;;;;;;;;;;2255562;59;21055;-75
2022/08/02 12:19:31;;;;;;;3.05;1.20;;;;;;;;;;2368201;56;21565;-76
2022/08/02 12:22:08;;;;;;;3.10;1.15;;;;;;;;;;2255408;59;21079;-75
2022/08/02 12:24:35;;;;;;;3.50;1.12;;;;;;;;;;2265125;59;21076;-76
2022/08/02 12:27:02;;;;;;;6.43;1.27;;;;;;;;;;2281378;59;21651;-75
2022/08/02 12:29:30;;;;;;;4.00;1.58;;;;;;;;;;2281656;59;21057;-76
2022/08/02 12:31:57;;;;;;;5.43;1.17;;;;;;;;;;2282138;59;21072;-77
2022/08/02 12:34:26;;;;;;;9.10;1.98;;;;;;;;;;2281693;59;21603;-76
2022/08/02 12:37:00;;;;;;;2.55;1.23;;;;;;;;;;2315094;55;21076;-76
2022/08/02 12:39:35;;;;;;;3.60;1.25;;;;;;;;;;2386070;55;21112;-75
2022/08/02 12:42:02;;;;;;;1.70;1.00;;;;;;;;;;2280388;59;21052;-75
2022/08/02 12:44:29;;;;;;;2.78;1.10;;;;;;;;;;2280821;59;21136;-75
2022/08/02 12:46:59;;;;;;;2.60;1.02;;;;;;;;;;2279347;59;21595;-75
2022/08/02 12:49:26;;;;;;;1.92;1.00;;;;;;;;;;2280401;59;21634;-77
2022/08/02 12:51:53;;;;;;;2.62;1.12;;;;;;;;;;2280785;59;21128;-75
2022/08/02 12:56:56;;;;;;;3.55;1.33;;;;;;;;;;2334505;57;38164;-74
2022/08/02 12:59:33;;;;;;;5.72;1.10;;;;;;;;;;2346101;57;21102;-75
2022/08/02 13:02:02;;;;;;;3.28;1.25;;;;;;;;;;2364177;56;21541;-75
2022/08/02 13:04:29;;;;;;;4.85;1.65;;;;;;;;;;2374125;56;21509;-75
2022/08/02 13:09:36;;;;;;;2.50;1.30;;;;;;;;;;2335590;57;28267;-75
2022/08/02 13:12:04;;;;;;;3.10;1.10;;;;;;;;;;2364344;56;21031;-75
2022/08/02 13:14:31;;;;;;;4.45;1.05;;;;;;;;;;2374276;56;21107;-78
2022/08/02 13:16:58;;;;;;;2.62;1.10;;;;;;;;;;2373514;56;21074;-78
2022/08/02 13:19:26;;;;;;;3.72;1.30;;;;;;;;;;2374395;56;21043;-77
2022/08/02 13:21:53;;;;;;;5.37;1.52;;;;;;;;;;2374246;56;21047;-78
2022/08/02 13:24:20;;;;;;;4.68;1.35;;;;;;;;;;2374087;56;21035;-76
2022/08/02 13:26:47;;;;;;;2.42;1.00;;;;;;;;;;2373689;56;21114;-77
2022/08/02 13:29:14;;;;;;;1.67;1.00;;;;;;;;;;2373191;56;21039;-76
2022/08/02 13:31:41;;;;;;;3.62;1.17;;;;;;;;;;2377403;52;21111;-78
2022/08/02 13:34:09;;;;;;;2.67;1.17;;;;;;;;;;2374394;56;21027;-77
2022/08/02 13:36:36;;;;;;;4.30;1.20;;;;;;;;;;2383868;52;21186;-78
2022/08/02 13:39:04;;;;;;;2.70;0.90;;;;;;;;;;2373857;56;21094;-77
2022/08/02 13:41:31;;;;;;;2.80;1.05;;;;;;;;;;2373510;56;21031;-76
2022/08/02 13:43:58;;;;;;;3.20;0.98;;;;;;;;;;2374943;52;21533;-77
2022/08/02 13:46:25;;;;;;;4.10;1.15;;;;;;;;;;2373329;56;21600;-76
2022/08/02 13:48:53;;;;;;;3.37;1.17;;;;;;;;;;2374316;56;21043;-77
2022/08/02 13:51:20;;;;;;;4.78;1.20;;;;;;;;;;2461396;52;21586;-77
2022/08/02 13:53:47;;;;;;;2.97;1.30;;;;;;;;;;2374257;56;21529;-76
2022/08/02 13:56:14;;;;;;;3.55;1.23;;;;;;;;;;2373354;56;21030;-77
2022/08/02 13:58:41;;;;;;;5.90;1.40;;;;;;;;;;2373821;56;21054;-77
2022/08/02 14:01:08;;;;;;;2.53;1.33;;;;;;;;;;2553299;52;21550;-76
2022/08/02 14:03:35;;;;;;;3.45;1.23;;;;;;;;;;2374078;56;21062;-78
2022/08/02 14:06:02;;;;;;;2.87;1.05;;;;;;;;;;2467141;52;21093;-77
2022/08/02 14:08:29;;;;;;;3.25;1.00;;;;;;;;;;2373876;56;21684;-77
2022/08/02 14:10:56;;;;;;;6.18;1.00;;;;;;;;;;2373786;56;21106;-77
2022/08/02 14:13:24;;;;;;;4.70;1.05;;;;;;;;;;2374095;56;21079;-77
2022/08/02 14:15:51;;;;;;;2.65;1.08;;;;;;;;;;2373872;56;21098;-77
2022/08/02 14:18:18;;;;;;;3.20;1.33;;;;;;;;;;2373322;56;21379;-77
2022/08/02 14:20:45;;;;;;;3.10;1.23;;;;;;;;;;2373334;56;21039;-77
2022/08/02 14:23:12;;;;;;;2.65;1.30;;;;;;;;;;2527900;52;21027;-77
2022/08/02 14:25:39;;;;;;;2.95;1.35;;;;;;;;;;2624953;52;21031;-76
2022/08/02 14:28:06;;;;;;;4.00;1.10;;;;;;;;;;2372807;56;21047;-77
2022/08/02 14:30:34;;;;;;;2.58;1.20;;;;;;;;;;2385378;52;21055;-77
2022/08/02 14:33:02;;;;;;;2.83;0.90;;;;;;;;;;2372983;56;21596;-77
2022/08/02 14:35:29;;;;;;;3.33;1.25;;;;;;;;;;2372031;56;21059;-77
2022/08/02 14:37:56;;;;;;;1.98;1.10;;;;;;;;;;2372963;56;21609;-77
2022/08/02 14:40:25;;;;;;;4.03;1.30;;;;;;;;;;2373244;56;21098;-78
2022/08/02 14:42:52;;;;;;;2.70;1.30;;;;;;;;;;2562898;52;21035;-77
2022/08/02 14:45:20;;;;;;;1.27;0.80;;;;;;;;;;2371394;56;21051;-78
2022/08/02 14:47:48;;;;;;;1.50;0.98;;;;;;;;;;2372985;56;21062;-77
2022/08/02 14:50:16;;;;;;;3.83;2.08;;;;;;;;;;2373457;56;21590;-77
2022/08/02 14:52:43;;;;;;;2.03;1.05;;;;;;;;;;2401301;52;21039;-80
2022/08/02 14:55:10;;;;;;;3.95;1.10;;;;;;;;;;2374404;56;21122;-82
2022/08/02 14:57:37;;;;;;;1.52;1.00;;;;;;;;;;2382072;52;21114;-81
2022/08/02 15:00:06;;;;;;;4.55;1.05;;;;;;;;;;2376574;52;21051;-80